sensor_id;sensor_type;location;lat;lon;timestamp;P1;durP1;ratioP1;P2;durP2;ratioP2
23466;SDS011;59740;47.696;11.746;2023-11-22T00:01:05;1.70;;;0.95;;
23466;SDS011;59740;47.696;11.746;2023-11-22T00:03:34;1.83;;;1.00;;
23466;SDS011;59740;47.696;11.746;2023-11-22T00:06:02;1.58;;;0.90;;
23466;SDS011;59740;47.696;11.746;2023-11-22T00:08:31;1.90;;;1.20;;
23466;SDS011;59740;47.696;11.746;2023-11-22T00:11:01;2.08;;;1.10;;
23466;SDS011;59740;47.696;11.746;2023-11-22T00:13:32;2.05;;;1.27;;
23466;SDS011;59740;47.696;11.746;2023-11-22T00:16:00;3.20;;;1.20;;
23466;SDS011;59740;47.696;11.746;2023-11-22T00:18:28;2.38;;;1.23;;
23466;SDS011;59740;47.696;11.746;2023-11-22T00:20:57;4.50;;;1.50;;
23466;SDS011;59740;47.696;11.746;2023-11-22T00:23:26;2.38;;;1.40;;
23466;SDS011;59740;47.696;11.746;2023-11-22T00:25:56;2.17;;;1.15;;
23466;SDS011;59740;47.696;11.746;2023-11-22T00:28:27;2.10;;;1.35;;
23466;SDS011;59740;47.696;11.746;2023-11-22T00:30:56;2.00;;;1.30;;
23466;SDS011;59740;47.696;11.746;2023-11-22T00:33:25;2.63;;;1.40;;
23466;SDS011;59740;47.696;11.746;2023-11-22T00:35:53;2.97;;;1.38;;
23466;SDS011;59740;47.696;11.746;2023-11-22T00:38:23;2.22;;;1.20;;
23466;SDS011;59740;47.696;11.746;2023-11-22T00:40:52;3.75;;;1.50;;
23466;SDS011;59740;47.696;11.746;2023-11-22T00:43:20;2.08;;;1.30;;
23466;SDS011;59740;47.696;11.746;2023-11-22T00:45:51;1.75;;;1.30;;
23466;SDS011;59740;47.696;11.746;2023-11-22T00:48:19;2.30;;;1.27;;
23466;SDS011;59740;47.696;11.746;2023-11-22T00:50:48;2.90;;;1.30;;
23466;SDS011;59740;47.696;11.746;2023-11-22T00:53:16;1.48;;;0.73;;
23466;SDS011;59740;47.696;11.746;2023-11-22T00:55:45;1.13;;;0.77;;
23466;SDS011;59740;47.696;11.746;2023-11-22T00:58:14;1.08;;;0.60;;
23466;SDS011;59740;47.696;11.746;2023-11-22T01:00:43;1.25;;;0.60;;
23466;SDS011;59740;47.696;11.746;2023-11-22T01:03:13;1.30;;;0.60;;
23466;SDS011;59740;47.696;11.746;2023-11-22T01:05:41;1.80;;;0.70;;
23466;SDS011;59740;47.696;11.746;2023-11-22T01:08:10;1.75;;;0.80;;
23466;SDS011;59740;47.696;11.746;2023-11-22T01:10:40;1.85;;;0.85;;
23466;SDS011;59740;47.696;11.746;2023-11-22T01:13:08;2.25;;;1.10;;
23466;SDS011;59740;47.696;11.746;2023-11-22T01:15:37;2.47;;;1.15;;
23466;SDS011;59740;47.696;11.746;2023-11-22T01:18:05;1.75;;;1.00;;
23466;SDS011;59740;47.696;11.746;2023-11-22T01:20:35;2.05;;;0.98;;
23466;SDS011;59740;47.696;11.746;2023-11-22T01:23:04;1.90;;;1.10;;
23466;SDS011;59740;47.696;11.746;2023-11-22T01:25:32;1.60;;;1.00;;
23466;SDS011;59740;47.696;11.746;2023-11-22T01:28:01;2.20;;;1.23;;
23466;SDS011;59740;47.696;11.746;2023-11-22T01:30:30;2.70;;;1.00;;
23466;SDS011;59740;47.696;11.746;2023-11-22T01:32:59;1.52;;;0.90;;
23466;SDS011;59740;47.696;11.746;2023-11-22T01:35:29;2.60;;;1.20;;
23466;SDS011;59740;47.696;11.746;2023-11-22T01:37:59;2.35;;;1.00;;
23466;SDS011;59740;47.696;11.746;2023-11-22T01:40:31;2.10;;;1.00;;
23466;SDS011;59740;47.696;11.746;2023-11-22T01:42:59;2.22;;;1.30;;
23466;SDS011;59740;47.696;11.746;2023-11-22T01:45:29;2.20;;;0.93;;
23466;SDS011;59740;47.696;11.746;2023-11-22T01:47:57;1.48;;;1.02;;
23466;SDS011;59740;47.696;11.746;2023-11-22T01:50:26;1.10;;;0.60;;
23466;SDS011;59740;47.696;11.746;2023-11-22T01:52:54;2.17;;;0.90;;
23466;SDS011;59740;47.696;11.746;2023-11-22T01:55:24;1.35;;;0.90;;
23466;SDS011;59740;47.696;11.746;2023-11-22T01:57:53;2.00;;;0.80;;
23466;SDS011;59740;47.696;11.746;2023-11-22T02:00:21;1.45;;;1.00;;
23466;SDS011;59740;47.696;11.746;2023-11-22T02:02:52;2.28;;;1.00;;
23466;SDS011;59740;47.696;11.746;2023-11-22T02:05:21;3.05;;;0.90;;
23466;SDS011;59740;47.696;11.746;2023-11-22T02:07:49;1.55;;;1.10;;
23466;SDS011;59740;47.696;11.746;2023-11-22T02:10:19;3.35;;;1.13;;
23466;SDS011;59740;47.696;11.746;2023-11-22T02:12:49;1.33;;;0.90;;
23466;SDS011;59740;47.696;11.746;2023-11-22T02:15:17;2.70;;;1.00;;
23466;SDS011;59740;47.696;11.746;2023-11-22T02:17:46;1.65;;;1.02;;
23466;SDS011;59740;47.696;11.746;2023-11-22T02:20:14;2.08;;;1.33;;
23466;SDS011;59740;47.696;11.746;2023-11-22T02:22:43;1.48;;;1.00;;
23466;SDS011;59740;47.696;11.746;2023-11-22T02:25:14;2.17;;;1.20;;
23466;SDS011;59740;47.696;11.746;2023-11-22T02:27:43;1.75;;;1.00;;
23466;SDS011;59740;47.696;11.746;2023-11-22T02:30:11;2.40;;;0.98;;
23466;SDS011;59740;47.696;11.746;2023-11-22T02:32:40;1.70;;;1.10;;
23466;SDS011;59740;47.696;11.746;2023-11-22T02:35:08;1.58;;;0.98;;
23466;SDS011;59740;47.696;11.746;2023-11-22T02:37:37;1.98;;;1.02;;
23466;SDS011;59740;47.696;11.746;2023-11-22T02:40:06;2.38;;;1.20;;
23466;SDS011;59740;47.696;11.746;2023-11-22T02:42:44;2.83;;;1.40;;
23466;SDS011;59740;47.696;11.746;2023-11-22T02:45:13;1.90;;;1.02;;
23466;SDS011;59740;47.696;11.746;2023-11-22T02:47:42;2.20;;;1.10;;
23466;SDS011;59740;47.696;11.746;2023-11-22T02:50:13;2.47;;;1.35;;
23466;SDS011;59740;47.696;11.746;2023-11-22T02:52:42;1.40;;;1.08;;
23466;SDS011;59740;47.696;11.746;2023-11-22T02:55:11;1.95;;;1.20;;
23466;SDS011;59740;47.696;11.746;2023-11-22T02:57:41;2.53;;;1.27;;
23466;SDS011;59740;47.696;11.746;2023-11-22T03:00:09;1.95;;;1.30;;
23466;SDS011;59740;47.696;11.746;2023-11-22T03:02:40;1.75;;;1.20;;
23466;SDS011;59740;47.696;11.746;2023-11-22T03:05:09;2.05;;;1.20;;
23466;SDS011;59740;47.696;11.746;2023-11-22T03:07:39;1.90;;;1.30;;
23466;SDS011;59740;47.696;11.746;2023-11-22T03:10:08;2.03;;;1.13;;
23466;SDS011;59740;47.696;11.746;2023-11-22T03:12:37;2.05;;;1.05;;
23466;SDS011;59740;47.696;11.746;2023-11-22T03:15:07;1.40;;;0.77;;
23466;SDS011;59740;47.696;11.746;2023-11-22T03:17:36;1.35;;;0.80;;
23466;SDS011;59740;47.696;11.746;2023-11-22T03:20:05;1.13;;;0.77;;
23466;SDS011;59740;47.696;11.746;2023-11-22T03:22:36;1.38;;;0.90;;
23466;SDS011;59740;47.696;11.746;2023-11-22T03:25:07;1.45;;;0.90;;
23466;SDS011;59740;47.696;11.746;2023-11-22T03:27:37;1.80;;;1.20;;
23466;SDS011;59740;47.696;11.746;2023-11-22T03:30:08;1.70;;;1.13;;
23466;SDS011;59740;47.696;11.746;2023-11-22T03:32:39;2.08;;;1.20;;
23466;SDS011;59740;47.696;11.746;2023-11-22T03:35:08;2.10;;;1.25;;
23466;SDS011;59740;47.696;11.746;2023-11-22T03:37:37;1.88;;;1.30;;
23466;SDS011;59740;47.696;11.746;2023-11-22T03:40:06;2.58;;;1.30;;
23466;SDS011;59740;47.696;11.746;2023-11-22T03:42:36;3.30;;;1.17;;
23466;SDS011;59740;47.696;11.746;2023-11-22T03:45:07;2.00;;;1.35;;
23466;SDS011;59740;47.696;11.746;2023-11-22T03:47:36;3.22;;;1.08;;
23466;SDS011;59740;47.696;11.746;2023-11-22T03:50:06;2.17;;;0.95;;
23466;SDS011;59740;47.696;11.746;2023-11-22T03:52:35;1.83;;;1.10;;
23466;SDS011;59740;47.696;11.746;2023-11-22T03:55:04;1.80;;;1.00;;
23466;SDS011;59740;47.696;11.746;2023-11-22T03:57:33;2.33;;;1.05;;
23466;SDS011;59740;47.696;11.746;2023-11-22T04:00:02;2.35;;;1.15;;
23466;SDS011;59740;47.696;11.746;2023-11-22T04:02:39;3.28;;;1.20;;
23466;SDS011;59740;47.696;11.746;2023-11-22T04:05:10;1.85;;;1.08;;
23466;SDS011;59740;47.696;11.746;2023-11-22T04:07:39;1.67;;;1.10;;
23466;SDS011;59740;47.696;11.746;2023-11-22T04:10:08;3.03;;;1.42;;
23466;SDS011;59740;47.696;11.746;2023-11-22T04:12:36;1.77;;;1.13;;
23466;SDS011;59740;47.696;11.746;2023-11-22T04:15:05;2.00;;;1.33;;
23466;SDS011;59740;47.696;11.746;2023-11-22T04:17:37;2.28;;;1.30;;
23466;SDS011;59740;47.696;11.746;2023-11-22T04:20:08;2.47;;;1.30;;
23466;SDS011;59740;47.696;11.746;2023-11-22T04:22:37;2.00;;;1.30;;
23466;SDS011;59740;47.696;11.746;2023-11-22T04:25:07;2.83;;;1.33;;
23466;SDS011;59740;47.696;11.746;2023-11-22T04:27:36;2.28;;;1.50;;
23466;SDS011;59740;47.696;11.746;2023-11-22T04:30:05;2.30;;;1.40;;
23466;SDS011;59740;47.696;11.746;2023-11-22T04:32:35;2.53;;;1.80;;
23466;SDS011;59740;47.696;11.746;2023-11-22T04:35:04;3.10;;;1.60;;
23466;SDS011;59740;47.696;11.746;2023-11-22T04:37:35;4.85;;;2.75;;
23466;SDS011;59740;47.696;11.746;2023-11-22T04:40:04;5.50;;;3.60;;
23466;SDS011;59740;47.696;11.746;2023-11-22T04:42:34;5.85;;;3.60;;
23466;SDS011;59740;47.696;11.746;2023-11-22T04:45:04;6.00;;;3.90;;
23466;SDS011;59740;47.696;11.746;2023-11-22T04:47:33;5.88;;;3.90;;
23466;SDS011;59740;47.696;11.746;2023-11-22T04:50:02;6.32;;;3.80;;
23466;SDS011;59740;47.696;11.746;2023-11-22T04:52:31;5.82;;;4.05;;
23466;SDS011;59740;47.696;11.746;2023-11-22T04:55:01;5.85;;;4.07;;
23466;SDS011;59740;47.696;11.746;2023-11-22T04:57:31;6.38;;;4.40;;
23466;SDS011;59740;47.696;11.746;2023-11-22T04:59:59;6.35;;;4.22;;
23466;SDS011;59740;47.696;11.746;2023-11-22T05:02:30;6.97;;;4.38;;
23466;SDS011;59740;47.696;11.746;2023-11-22T05:04:58;6.95;;;4.72;;
23466;SDS011;59740;47.696;11.746;2023-11-22T05:07:27;7.10;;;5.03;;
23466;SDS011;59740;47.696;11.746;2023-11-22T05:09:56;8.32;;;5.63;;
23466;SDS011;59740;47.696;11.746;2023-11-22T05:12:26;8.25;;;5.40;;
23466;SDS011;59740;47.696;11.746;2023-11-22T05:14:54;9.85;;;6.22;;
23466;SDS011;59740;47.696;11.746;2023-11-22T05:17:23;7.55;;;5.38;;
23466;SDS011;59740;47.696;11.746;2023-11-22T05:19:51;9.88;;;6.38;;
23466;SDS011;59740;47.696;11.746;2023-11-22T05:22:20;9.27;;;6.00;;
23466;SDS011;59740;47.696;11.746;2023-11-22T05:24:49;8.38;;;5.75;;
23466;SDS011;59740;47.696;11.746;2023-11-22T05:27:17;10.20;;;6.85;;
23466;SDS011;59740;47.696;11.746;2023-11-22T05:29:47;11.10;;;6.50;;
23466;SDS011;59740;47.696;11.746;2023-11-22T05:32:21;9.13;;;5.95;;
23466;SDS011;59740;47.696;11.746;2023-11-22T05:34:49;8.38;;;5.95;;
23466;SDS011;59740;47.696;11.746;2023-11-22T05:37:18;8.95;;;6.20;;
23466;SDS011;59740;47.696;11.746;2023-11-22T05:39:47;8.35;;;5.53;;
23466;SDS011;59740;47.696;11.746;2023-11-22T05:42:16;9.38;;;6.43;;
23466;SDS011;59740;47.696;11.746;2023-11-22T05:44:44;8.82;;;6.25;;
23466;SDS011;59740;47.696;11.746;2023-11-22T05:47:14;9.35;;;5.93;;
23466;SDS011;59740;47.696;11.746;2023-11-22T05:49:45;11.98;;;5.70;;
23466;SDS011;59740;47.696;11.746;2023-11-22T05:52:14;9.05;;;5.72;;
23466;SDS011;59740;47.696;11.746;2023-11-22T05:54:42;7.93;;;5.53;;
23466;SDS011;59740;47.696;11.746;2023-11-22T05:57:10;7.97;;;6.05;;
23466;SDS011;59740;47.696;11.746;2023-11-22T05:59:39;7.20;;;5.10;;
23466;SDS011;59740;47.696;11.746;2023-11-22T06:02:07;6.90;;;4.82;;
23466;SDS011;59740;47.696;11.746;2023-11-22T06:04:37;6.85;;;4.43;;
23466;SDS011;59740;47.696;11.746;2023-11-22T06:07:08;7.22;;;4.57;;
23466;SDS011;59740;47.696;11.746;2023-11-22T06:09:37;6.75;;;4.28;;
23466;SDS011;59740;47.696;11.746;2023-11-22T06:12:05;5.25;;;3.75;;
23466;SDS011;59740;47.696;11.746;2023-11-22T06:14:34;6.20;;;4.35;;
23466;SDS011;59740;47.696;11.746;2023-11-22T06:17:02;6.95;;;4.72;;
23466;SDS011;59740;47.696;11.746;2023-11-22T06:19:31;5.82;;;3.95;;
23466;SDS011;59740;47.696;11.746;2023-11-22T06:22:01;5.85;;;4.20;;
23466;SDS011;59740;47.696;11.746;2023-11-22T06:24:29;5.10;;;3.92;;
23466;SDS011;59740;47.696;11.746;2023-11-22T06:27:00;5.38;;;3.75;;
23466;SDS011;59740;47.696;11.746;2023-11-22T06:29:28;4.93;;;3.63;;
23466;SDS011;59740;47.696;11.746;2023-11-22T06:31:57;4.63;;;3.40;;
23466;SDS011;59740;47.696;11.746;2023-11-22T06:34:25;4.55;;;3.40;;
23466;SDS011;59740;47.696;11.746;2023-11-22T06:36:54;4.25;;;3.28;;
23466;SDS011;59740;47.696;11.746;2023-11-22T06:39:23;5.50;;;3.70;;
23466;SDS011;59740;47.696;11.746;2023-11-22T06:41:52;4.43;;;3.60;;
23466;SDS011;59740;47.696;11.746;2023-11-22T06:44:20;5.07;;;3.65;;
23466;SDS011;59740;47.696;11.746;2023-11-22T06:46:50;5.32;;;4.00;;
23466;SDS011;59740;47.696;11.746;2023-11-22T06:49:18;4.57;;;3.65;;
23466;SDS011;59740;47.696;11.746;2023-11-22T06:51:47;5.03;;;3.80;;
23466;SDS011;59740;47.696;11.746;2023-11-22T06:54:15;5.65;;;4.00;;
23466;SDS011;59740;47.696;11.746;2023-11-22T06:56:45;4.82;;;3.67;;
23466;SDS011;59740;47.696;11.746;2023-11-22T06:59:14;4.85;;;3.70;;
23466;SDS011;59740;47.696;11.746;2023-11-22T07:01:43;4.97;;;3.58;;
23466;SDS011;59740;47.696;11.746;2023-11-22T07:04:12;4.88;;;3.72;;
23466;SDS011;59740;47.696;11.746;2023-11-22T07:06:41;4.50;;;3.28;;
23466;SDS011;59740;47.696;11.746;2023-11-22T07:09:11;4.60;;;3.40;;
23466;SDS011;59740;47.696;11.746;2023-11-22T07:11:40;4.70;;;3.72;;
23466;SDS011;59740;47.696;11.746;2023-11-22T07:14:12;5.88;;;4.13;;
23466;SDS011;59740;47.696;11.746;2023-11-22T07:16:41;6.30;;;3.95;;
23466;SDS011;59740;47.696;11.746;2023-11-22T07:19:09;5.50;;;3.90;;
23466;SDS011;59740;47.696;11.746;2023-11-22T07:21:39;4.65;;;3.60;;
23466;SDS011;59740;47.696;11.746;2023-11-22T07:24:08;5.70;;;4.57;;
23466;SDS011;59740;47.696;11.746;2023-11-22T07:26:41;5.78;;;4.15;;
23466;SDS011;59740;47.696;11.746;2023-11-22T07:29:11;5.18;;;3.63;;
23466;SDS011;59740;47.696;11.746;2023-11-22T07:31:40;3.90;;;3.13;;
23466;SDS011;59740;47.696;11.746;2023-11-22T07:34:09;4.70;;;3.60;;
23466;SDS011;59740;47.696;11.746;2023-11-22T07:36:39;4.32;;;3.28;;
23466;SDS011;59740;47.696;11.746;2023-11-22T07:39:08;4.18;;;3.13;;
23466;SDS011;59740;47.696;11.746;2023-11-22T07:41:39;6.63;;;3.53;;
23466;SDS011;59740;47.696;11.746;2023-11-22T07:44:08;3.92;;;2.70;;
23466;SDS011;59740;47.696;11.746;2023-11-22T07:46:42;3.78;;;2.47;;
23466;SDS011;59740;47.696;11.746;2023-11-22T07:49:11;3.45;;;2.55;;
23466;SDS011;59740;47.696;11.746;2023-11-22T07:51:40;4.30;;;2.80;;
23466;SDS011;59740;47.696;11.746;2023-11-22T07:54:09;4.05;;;2.72;;
23466;SDS011;59740;47.696;11.746;2023-11-22T07:56:39;4.40;;;3.40;;
23466;SDS011;59740;47.696;11.746;2023-11-22T07:59:10;4.05;;;2.88;;
23466;SDS011;59740;47.696;11.746;2023-11-22T08:01:38;4.32;;;2.40;;
23466;SDS011;59740;47.696;11.746;2023-11-22T08:04:11;4.70;;;3.22;;
23466;SDS011;59740;47.696;11.746;2023-11-22T08:06:41;4.40;;;3.35;;
23466;SDS011;59740;47.696;11.746;2023-11-22T08:09:09;4.03;;;3.10;;
23466;SDS011;59740;47.696;11.746;2023-11-22T08:11:38;4.22;;;3.00;;
23466;SDS011;59740;47.696;11.746;2023-11-22T08:14:07;3.78;;;2.92;;
23466;SDS011;59740;47.696;11.746;2023-11-22T08:16:36;3.70;;;2.78;;
23466;SDS011;59740;47.696;11.746;2023-11-22T08:19:09;4.32;;;3.17;;
23466;SDS011;59740;47.696;11.746;2023-11-22T08:21:40;4.28;;;2.97;;
23466;SDS011;59740;47.696;11.746;2023-11-22T08:24:09;4.38;;;3.40;;
23466;SDS011;59740;47.696;11.746;2023-11-22T08:26:39;4.78;;;3.20;;
23466;SDS011;59740;47.696;11.746;2023-11-22T08:29:08;4.78;;;3.15;;
23466;SDS011;59740;47.696;11.746;2023-11-22T08:31:38;4.60;;;3.20;;
23466;SDS011;59740;47.696;11.746;2023-11-22T08:34:06;5.10;;;3.78;;
23466;SDS011;59740;47.696;11.746;2023-11-22T08:36:35;4.90;;;3.65;;
23466;SDS011;59740;47.696;11.746;2023-11-22T08:39:07;5.65;;;4.05;;
23466;SDS011;59740;47.696;11.746;2023-11-22T08:41:35;5.22;;;3.83;;
23466;SDS011;59740;47.696;11.746;2023-11-22T08:44:05;4.80;;;3.55;;
23466;SDS011;59740;47.696;11.746;2023-11-22T08:46:34;5.30;;;3.85;;
23466;SDS011;59740;47.696;11.746;2023-11-22T08:49:02;5.93;;;3.78;;
23466;SDS011;59740;47.696;11.746;2023-11-22T08:51:31;5.05;;;3.83;;
23466;SDS011;59740;47.696;11.746;2023-11-22T08:54:01;5.10;;;3.72;;
23466;SDS011;59740;47.696;11.746;2023-11-22T08:56:31;5.10;;;3.63;;
23466;SDS011;59740;47.696;11.746;2023-11-22T08:59:01;5.38;;;4.43;;
23466;SDS011;59740;47.696;11.746;2023-11-22T09:01:32;6.13;;;4.70;;
23466;SDS011;59740;47.696;11.746;2023-11-22T09:04:00;5.70;;;4.75;;
23466;SDS011;59740;47.696;11.746;2023-11-22T09:06:29;5.47;;;4.38;;
23466;SDS011;59740;47.696;11.746;2023-11-22T09:08:59;5.90;;;4.32;;
23466;SDS011;59740;47.696;11.746;2023-11-22T09:11:28;5.82;;;4.57;;
23466;SDS011;59740;47.696;11.746;2023-11-22T09:14:01;6.15;;;4.78;;
23466;SDS011;59740;47.696;11.746;2023-11-22T09:16:34;8.15;;;4.80;;
23466;SDS011;59740;47.696;11.746;2023-11-22T09:19:03;5.70;;;4.72;;
23466;SDS011;59740;47.696;11.746;2023-11-22T09:21:35;5.70;;;4.38;;
23466;SDS011;59740;47.696;11.746;2023-11-22T09:24:03;6.72;;;5.38;;
23466;SDS011;59740;47.696;11.746;2023-11-22T09:26:34;7.00;;;4.97;;
23466;SDS011;59740;47.696;11.746;2023-11-22T09:29:03;7.10;;;5.45;;
23466;SDS011;59740;47.696;11.746;2023-11-22T09:31:32;5.60;;;4.38;;
23466;SDS011;59740;47.696;11.746;2023-11-22T09:34:00;6.68;;;5.00;;
23466;SDS011;59740;47.696;11.746;2023-11-22T09:36:30;6.35;;;5.07;;
23466;SDS011;59740;47.696;11.746;2023-11-22T09:39:00;8.93;;;4.88;;
23466;SDS011;59740;47.696;11.746;2023-11-22T09:41:29;6.40;;;4.80;;
23466;SDS011;59740;47.696;11.746;2023-11-22T09:43:59;5.72;;;4.30;;
23466;SDS011;59740;47.696;11.746;2023-11-22T09:46:28;5.43;;;4.10;;
23466;SDS011;59740;47.696;11.746;2023-11-22T09:48:58;5.72;;;3.95;;
23466;SDS011;59740;47.696;11.746;2023-11-22T09:51:29;5.85;;;4.45;;
23466;SDS011;59740;47.696;11.746;2023-11-22T09:54:03;6.55;;;4.72;;
23466;SDS011;59740;47.696;11.746;2023-11-22T09:56:34;5.93;;;4.10;;
23466;SDS011;59740;47.696;11.746;2023-11-22T09:59:06;4.95;;;3.90;;
23466;SDS011;59740;47.696;11.746;2023-11-22T10:01:35;5.55;;;3.75;;
23466;SDS011;59740;47.696;11.746;2023-11-22T10:04:04;5.47;;;3.85;;
23466;SDS011;59740;47.696;11.746;2023-11-22T10:06:33;5.72;;;3.45;;
23466;SDS011;59740;47.696;11.746;2023-11-22T10:09:02;7.40;;;3.90;;
23466;SDS011;59740;47.696;11.746;2023-11-22T10:11:35;5.07;;;3.65;;
23466;SDS011;59740;47.696;11.746;2023-11-22T10:14:07;5.10;;;3.67;;
23466;SDS011;59740;47.696;11.746;2023-11-22T10:16:36;4.40;;;2.72;;
23466;SDS011;59740;47.696;11.746;2023-11-22T10:19:06;4.40;;;2.92;;
23466;SDS011;59740;47.696;11.746;2023-11-22T10:21:35;5.25;;;2.90;;
23466;SDS011;59740;47.696;11.746;2023-11-22T10:24:07;3.95;;;2.60;;
23466;SDS011;59740;47.696;11.746;2023-11-22T10:26:36;5.53;;;3.20;;
23466;SDS011;59740;47.696;11.746;2023-11-22T10:29:05;5.72;;;3.53;;
23466;SDS011;59740;47.696;11.746;2023-11-22T10:31:36;5.00;;;3.30;;
23466;SDS011;59740;47.696;11.746;2023-11-22T10:34:08;4.88;;;3.35;;
23466;SDS011;59740;47.696;11.746;2023-11-22T10:36:37;4.85;;;3.50;;
23466;SDS011;59740;47.696;11.746;2023-11-22T10:39:07;5.32;;;3.70;;
23466;SDS011;59740;47.696;11.746;2023-11-22T10:41:42;4.10;;;3.00;;
23466;SDS011;59740;47.696;11.746;2023-11-22T10:44:11;4.93;;;3.42;;
23466;SDS011;59740;47.696;11.746;2023-11-22T10:46:43;4.40;;;2.90;;
23466;SDS011;59740;47.696;11.746;2023-11-22T10:49:12;5.03;;;3.53;;
23466;SDS011;59740;47.696;11.746;2023-11-22T10:51:43;4.53;;;3.55;;
23466;SDS011;59740;47.696;11.746;2023-11-22T10:54:16;4.93;;;3.85;;
23466;SDS011;59740;47.696;11.746;2023-11-22T10:56:50;4.13;;;3.42;;
23466;SDS011;59740;47.696;11.746;2023-11-22T10:59:23;4.82;;;3.58;;
23466;SDS011;59740;47.696;11.746;2023-11-22T11:01:56;4.80;;;3.63;;
23466;SDS011;59740;47.696;11.746;2023-11-22T11:04:34;4.57;;;3.38;;
23466;SDS011;59740;47.696;11.746;2023-11-22T11:07:09;4.72;;;3.42;;
23466;SDS011;59740;47.696;11.746;2023-11-22T11:09:42;5.25;;;3.88;;
23466;SDS011;59740;47.696;11.746;2023-11-22T11:12:14;4.72;;;3.60;;
23466;SDS011;59740;47.696;11.746;2023-11-22T11:14:42;5.47;;;3.88;;
23466;SDS011;59740;47.696;11.746;2023-11-22T11:17:13;5.75;;;3.70;;
23466;SDS011;59740;47.696;11.746;2023-11-22T11:19:43;5.47;;;3.97;;
23466;SDS011;59740;47.696;11.746;2023-11-22T11:22:11;6.68;;;3.42;;
23466;SDS011;59740;47.696;11.746;2023-11-22T11:24:40;4.68;;;3.45;;
23466;SDS011;59740;47.696;11.746;2023-11-22T11:27:14;4.28;;;2.95;;
23466;SDS011;59740;47.696;11.746;2023-11-22T11:29:46;4.72;;;3.50;;
23466;SDS011;59740;47.696;11.746;2023-11-22T11:32:17;4.93;;;3.83;;
23466;SDS011;59740;47.696;11.746;2023-11-22T11:34:59;4.53;;;3.13;;
23466;SDS011;59740;47.696;11.746;2023-11-22T11:37:33;3.97;;;3.05;;
23466;SDS011;59740;47.696;11.746;2023-11-22T11:42:54;4.07;;;3.10;;
23466;SDS011;59740;47.696;11.746;2023-11-22T11:45:23;5.15;;;3.45;;
23466;SDS011;59740;47.696;11.746;2023-11-22T11:47:53;4.47;;;3.30;;
23466;SDS011;59740;47.696;11.746;2023-11-22T11:50:22;4.63;;;3.72;;
23466;SDS011;59740;47.696;11.746;2023-11-22T11:52:51;4.95;;;3.47;;
23466;SDS011;59740;47.696;11.746;2023-11-22T11:55:19;4.38;;;3.17;;
23466;SDS011;59740;47.696;11.746;2023-11-22T11:57:48;5.03;;;3.58;;
23466;SDS011;59740;47.696;11.746;2023-11-22T12:00:17;5.05;;;3.70;;
23466;SDS011;59740;47.696;11.746;2023-11-22T12:02:45;5.03;;;3.88;;
23466;SDS011;59740;47.696;11.746;2023-11-22T12:05:22;5.68;;;3.28;;
23466;SDS011;59740;47.696;11.746;2023-11-22T12:07:52;4.43;;;3.28;;
23466;SDS011;59740;47.696;11.746;2023-11-22T12:10:20;4.85;;;2.90;;
23466;SDS011;59740;47.696;11.746;2023-11-22T12:12:51;4.45;;;3.13;;
23466;SDS011;59740;47.696;11.746;2023-11-22T12:15:19;4.20;;;2.92;;
23466;SDS011;59740;47.696;11.746;2023-11-22T12:17:48;7.13;;;4.05;;
23466;SDS011;59740;47.696;11.746;2023-11-22T12:20:19;5.25;;;3.60;;
23466;SDS011;59740;47.696;11.746;2023-11-22T12:22:50;4.80;;;3.50;;
23466;SDS011;59740;47.696;11.746;2023-11-22T12:25:18;4.35;;;3.25;;
23466;SDS011;59740;47.696;11.746;2023-11-22T12:27:48;5.80;;;3.75;;
23466;SDS011;59740;47.696;11.746;2023-11-22T12:30:27;6.35;;;3.38;;
23466;SDS011;59740;47.696;11.746;2023-11-22T12:33:04;6.00;;;3.67;;
23466;SDS011;59740;47.696;11.746;2023-11-22T12:35:34;6.32;;;3.20;;
23466;SDS011;59740;47.696;11.746;2023-11-22T12:38:05;4.63;;;3.15;;
23466;SDS011;59740;47.696;11.746;2023-11-22T12:40:34;4.82;;;3.47;;
23466;SDS011;59740;47.696;11.746;2023-11-22T12:43:03;4.78;;;3.28;;
23466;SDS011;59740;47.696;11.746;2023-11-22T12:45:33;4.05;;;3.13;;
23466;SDS011;59740;47.696;11.746;2023-11-22T12:48:22;4.53;;;3.20;;
23466;SDS011;59740;47.696;11.746;2023-11-22T12:50:52;5.25;;;2.83;;
23466;SDS011;59740;47.696;11.746;2023-11-22T12:53:23;4.18;;;2.67;;
23466;SDS011;59740;47.696;11.746;2023-11-22T12:55:53;4.55;;;3.17;;
23466;SDS011;59740;47.696;11.746;2023-11-22T12:58:22;4.05;;;2.65;;
23466;SDS011;59740;47.696;11.746;2023-11-22T13:00:52;3.70;;;2.85;;
23466;SDS011;59740;47.696;11.746;2023-11-22T13:03:25;4.88;;;2.90;;
23466;SDS011;59740;47.696;11.746;2023-11-22T13:05:54;4.18;;;2.90;;
23466;SDS011;59740;47.696;11.746;2023-11-22T13:08:25;3.58;;;2.28;;
23466;SDS011;59740;47.696;11.746;2023-11-22T13:10:57;3.40;;;2.47;;
23466;SDS011;59740;47.696;11.746;2023-11-22T13:13:26;3.55;;;2.55;;
23466;SDS011;59740;47.696;11.746;2023-11-22T13:15:57;3.60;;;2.70;;
23466;SDS011;59740;47.696;11.746;2023-11-22T13:18:27;3.70;;;2.28;;
23466;SDS011;59740;47.696;11.746;2023-11-22T13:20:55;4.30;;;2.75;;
23466;SDS011;59740;47.696;11.746;2023-11-22T13:23:27;4.18;;;3.15;;
23466;SDS011;59740;47.696;11.746;2023-11-22T13:25:56;5.25;;;3.75;;
23466;SDS011;59740;47.696;11.746;2023-11-22T13:28:24;5.53;;;3.55;;
23466;SDS011;59740;47.696;11.746;2023-11-22T13:30:53;4.85;;;3.63;;
23466;SDS011;59740;47.696;11.746;2023-11-22T13:33:22;5.10;;;3.53;;
23466;SDS011;59740;47.696;11.746;2023-11-22T13:35:51;6.18;;;3.30;;
23466;SDS011;59740;47.696;11.746;2023-11-22T13:38:19;4.75;;;3.67;;
23466;SDS011;59740;47.696;11.746;2023-11-22T13:40:49;5.70;;;3.28;;
23466;SDS011;59740;47.696;11.746;2023-11-22T13:43:18;5.00;;;3.60;;
23466;SDS011;59740;47.696;11.746;2023-11-22T13:45:47;6.72;;;4.20;;
23466;SDS011;59740;47.696;11.746;2023-11-22T13:48:17;6.30;;;4.95;;
23466;SDS011;59740;47.696;11.746;2023-11-22T13:50:46;6.47;;;5.07;;
23466;SDS011;59740;47.696;11.746;2023-11-22T13:53:14;7.75;;;5.53;;
23466;SDS011;59740;47.696;11.746;2023-11-22T13:55:46;7.18;;;5.15;;
23466;SDS011;59740;47.696;11.746;2023-11-22T13:58:16;6.22;;;4.85;;
23466;SDS011;59740;47.696;11.746;2023-11-22T14:00:44;6.72;;;5.32;;
23466;SDS011;59740;47.696;11.746;2023-11-22T14:03:14;6.60;;;5.15;;
23466;SDS011;59740;47.696;11.746;2023-11-22T14:05:43;7.30;;;4.85;;
23466;SDS011;59740;47.696;11.746;2023-11-22T14:08:12;7.47;;;5.25;;
23466;SDS011;59740;47.696;11.746;2023-11-22T14:10:43;6.85;;;5.20;;
23466;SDS011;59740;47.696;11.746;2023-11-22T14:13:12;6.80;;;5.32;;
23466;SDS011;59740;47.696;11.746;2023-11-22T14:15:41;6.28;;;4.82;;
23466;SDS011;59740;47.696;11.746;2023-11-22T14:18:10;7.10;;;5.20;;
23466;SDS011;59740;47.696;11.746;2023-11-22T14:20:39;8.18;;;5.07;;
23466;SDS011;59740;47.696;11.746;2023-11-22T14:23:07;5.57;;;4.40;;
23466;SDS011;59740;47.696;11.746;2023-11-22T14:25:36;6.57;;;4.80;;
23466;SDS011;59740;47.696;11.746;2023-11-22T14:28:08;7.60;;;5.40;;
23466;SDS011;59740;47.696;11.746;2023-11-22T14:30:36;6.65;;;5.03;;
23466;SDS011;59740;47.696;11.746;2023-11-22T14:33:06;6.70;;;5.30;;
23466;SDS011;59740;47.696;11.746;2023-11-22T14:35:37;6.15;;;4.80;;
23466;SDS011;59740;47.696;11.746;2023-11-22T14:38:05;6.07;;;4.90;;
23466;SDS011;59740;47.696;11.746;2023-11-22T14:40:34;5.78;;;4.50;;
23466;SDS011;59740;47.696;11.746;2023-11-22T14:43:05;5.55;;;4.20;;
23466;SDS011;59740;47.696;11.746;2023-11-22T14:45:34;5.90;;;4.25;;
23466;SDS011;59740;47.696;11.746;2023-11-22T14:48:04;7.25;;;5.25;;
23466;SDS011;59740;47.696;11.746;2023-11-22T14:50:35;6.72;;;5.38;;